sensor_id;sensor_type;location;lat;lon;timestamp;P1;durP1;ratioP1;P2;durP2;ratioP2
78895;SDS011;68284;59.124;37.910;2024-01-30T00:00:16;3.53;;;3.05;;
78895;SDS011;68284;59.124;37.910;2024-01-30T00:02:43;4.63;;;3.22;;
78895;SDS011;68284;59.124;37.910;2024-01-30T00:05:11;5.90;;;3.30;;
78895;SDS011;68284;59.124;37.910;2024-01-30T00:07:38;5.47;;;4.20;;
78895;SDS011;68284;59.124;37.910;2024-01-30T00:10:04;3.65;;;2.80;;
78895;SDS011;68284;59.124;37.910;2024-01-30T00:12:32;4.47;;;3.47;;
78895;SDS011;68284;59.124;37.910;2024-01-30T00:14:58;4.88;;;2.58;;
78895;SDS011;68284;59.124;37.910;2024-01-30T00:17:25;5.57;;;4.00;;
78895;SDS011;68284;59.124;37.910;2024-01-30T00:19:52;5.50;;;2.45;;
78895;SDS011;68284;59.124;37.910;2024-01-30T00:22:18;7.82;;;4.88;;
78895;SDS011;68284;59.124;37.910;2024-01-30T00:24:45;8.13;;;3.90;;
78895;SDS011;68284;59.124;37.910;2024-01-30T00:27:11;8.63;;;3.58;;
78895;SDS011;68284;59.124;37.910;2024-01-30T00:29:38;10.80;;;3.42;;
78895;SDS011;68284;59.124;37.910;2024-01-30T00:32:04;10.52;;;4.78;;
78895;SDS011;68284;59.124;37.910;2024-01-30T00:34:31;17.23;;;6.20;;
78895;SDS011;68284;59.124;37.910;2024-01-30T00:36:58;12.77;;;5.03;;
78895;SDS011;68284;59.124;37.910;2024-01-30T00:39:24;7.60;;;3.00;;
78895;SDS011;68284;59.124;37.910;2024-01-30T00:41:51;12.60;;;3.53;;
78895;SDS011;68284;59.124;37.910;2024-01-30T00:44:17;8.60;;;5.07;;
78895;SDS011;68284;59.124;37.910;2024-01-30T00:46:44;10.60;;;4.93;;
78895;SDS011;68284;59.124;37.910;2024-01-30T00:49:10;17.50;;;5.07;;
78895;SDS011;68284;59.124;37.910;2024-01-30T00:51:37;13.18;;;4.20;;
78895;SDS011;68284;59.124;37.910;2024-01-30T00:54:03;26.58;;;5.50;;
78895;SDS011;68284;59.124;37.910;2024-01-30T00:56:32;14.07;;;5.28;;
78895;SDS011;68284;59.124;37.910;2024-01-30T00:58:59;10.48;;;5.05;;
78895;SDS011;68284;59.124;37.910;2024-01-30T01:01:25;10.57;;;3.90;;
78895;SDS011;68284;59.124;37.910;2024-01-30T01:03:53;13.63;;;6.35;;
78895;SDS011;68284;59.124;37.910;2024-01-30T01:06:19;11.15;;;4.75;;
78895;SDS011;68284;59.124;37.910;2024-01-30T01:08:46;12.20;;;3.95;;
78895;SDS011;68284;59.124;37.910;2024-01-30T01:11:12;13.82;;;4.60;;
78895;SDS011;68284;59.124;37.910;2024-01-30T01:13:39;8.57;;;3.72;;
78895;SDS011;68284;59.124;37.910;2024-01-30T01:16:06;8.02;;;4.70;;
78895;SDS011;68284;59.124;37.910;2024-01-30T01:18:32;8.32;;;4.32;;
78895;SDS011;68284;59.124;37.910;2024-01-30T01:20:59;11.48;;;3.95;;
78895;SDS011;68284;59.124;37.910;2024-01-30T01:23:28;5.70;;;4.68;;
78895;SDS011;68284;59.124;37.910;2024-01-30T01:25:55;5.45;;;3.38;;
78895;SDS011;68284;59.124;37.910;2024-01-30T01:28:21;8.73;;;4.18;;
78895;SDS011;68284;59.124;37.910;2024-01-30T01:30:48;13.63;;;5.28;;
78895;SDS011;68284;59.124;37.910;2024-01-30T01:33:15;4.93;;;3.75;;
78895;SDS011;68284;59.124;37.910;2024-01-30T01:35:41;12.77;;;5.20;;
78895;SDS011;68284;59.124;37.910;2024-01-30T01:38:10;14.20;;;6.68;;
78895;SDS011;68284;59.124;37.910;2024-01-30T01:40:37;4.85;;;4.28;;
78895;SDS011;68284;59.124;37.910;2024-01-30T01:43:06;9.50;;;3.85;;
78895;SDS011;68284;59.124;37.910;2024-01-30T01:45:32;6.35;;;4.80;;
78895;SDS011;68284;59.124;37.910;2024-01-30T01:50:25;17.20;;;7.53;;
78895;SDS011;68284;59.124;37.910;2024-01-30T01:55:20;12.65;;;10.27;;
78895;SDS011;68284;59.124;37.910;2024-01-30T01:57:48;18.23;;;7.05;;
78895;SDS011;68284;59.124;37.910;2024-01-30T02:00:15;16.92;;;6.22;;
78895;SDS011;68284;59.124;37.910;2024-01-30T02:02:45;8.30;;;5.15;;
78895;SDS011;68284;59.124;37.910;2024-01-30T02:05:12;15.73;;;6.57;;
78895;SDS011;68284;59.124;37.910;2024-01-30T02:07:40;12.80;;;6.10;;
78895;SDS011;68284;59.124;37.910;2024-01-30T02:10:12;14.15;;;6.10;;
78895;SDS011;68284;59.124;37.910;2024-01-30T02:12:39;12.15;;;4.65;;
78895;SDS011;68284;59.124;37.910;2024-01-30T02:15:06;6.00;;;4.05;;
78895;SDS011;68284;59.124;37.910;2024-01-30T02:17:34;10.70;;;6.55;;
78895;SDS011;68284;59.124;37.910;2024-01-30T02:20:01;12.27;;;4.75;;
78895;SDS011;68284;59.124;37.910;2024-01-30T02:22:28;9.85;;;5.95;;
78895;SDS011;68284;59.124;37.910;2024-01-30T02:27:21;17.90;;;9.10;;
78895;SDS011;68284;59.124;37.910;2024-01-30T02:29:48;9.88;;;8.02;;
78895;SDS011;68284;59.124;37.910;2024-01-30T02:32:15;9.00;;;5.90;;
78895;SDS011;68284;59.124;37.910;2024-01-30T02:34:43;8.80;;;5.68;;
78895;SDS011;68284;59.124;37.910;2024-01-30T02:37:09;7.85;;;5.78;;
78895;SDS011;68284;59.124;37.910;2024-01-30T02:39:36;14.02;;;6.18;;
78895;SDS011;68284;59.124;37.910;2024-01-30T02:42:03;11.10;;;5.75;;
78895;SDS011;68284;59.124;37.910;2024-01-30T02:44:29;7.03;;;4.70;;
78895;SDS011;68284;59.124;37.910;2024-01-30T02:46:57;9.10;;;5.85;;
78895;SDS011;68284;59.124;37.910;2024-01-30T02:49:23;16.73;;;6.38;;
78895;SDS011;68284;59.124;37.910;2024-01-30T02:51:51;15.75;;;8.23;;
78895;SDS011;68284;59.124;37.910;2024-01-30T02:54:18;19.02;;;7.13;;
78895;SDS011;68284;59.124;37.910;2024-01-30T02:56:45;15.40;;;8.57;;
78895;SDS011;68284;59.124;37.910;2024-01-30T02:59:11;20.88;;;9.68;;
78895;SDS011;68284;59.124;37.910;2024-01-30T03:01:42;14.23;;;9.25;;
78895;SDS011;68284;59.124;37.910;2024-01-30T03:04:10;18.95;;;11.38;;
78895;SDS011;68284;59.124;37.910;2024-01-30T03:06:37;24.15;;;9.82;;
78895;SDS011;68284;59.124;37.910;2024-01-30T03:09:03;18.70;;;8.75;;
78895;SDS011;68284;59.124;37.910;2024-01-30T03:11:30;17.20;;;9.20;;
78895;SDS011;68284;59.124;37.910;2024-01-30T03:13:58;15.65;;;10.32;;
78895;SDS011;68284;59.124;37.910;2024-01-30T03:16:25;18.45;;;9.95;;
78895;SDS011;68284;59.124;37.910;2024-01-30T03:18:52;12.80;;;8.50;;
78895;SDS011;68284;59.124;37.910;2024-01-30T03:21:19;23.67;;;9.18;;
78895;SDS011;68284;59.124;37.910;2024-01-30T03:23:45;11.30;;;6.82;;
78895;SDS011;68284;59.124;37.910;2024-01-30T03:26:12;21.00;;;8.23;;
78895;SDS011;68284;59.124;37.910;2024-01-30T03:31:06;12.70;;;8.90;;
78895;SDS011;68284;59.124;37.910;2024-01-30T03:33:33;8.90;;;5.45;;
78895;SDS011;68284;59.124;37.910;2024-01-30T03:36:03;12.88;;;7.03;;
78895;SDS011;68284;59.124;37.910;2024-01-30T03:38:30;18.35;;;7.97;;
78895;SDS011;68284;59.124;37.910;2024-01-30T03:40:58;11.40;;;7.93;;
78895;SDS011;68284;59.124;37.910;2024-01-30T03:43:26;18.00;;;7.82;;
78895;SDS011;68284;59.124;37.910;2024-01-30T03:48:20;18.00;;;11.85;;
78895;SDS011;68284;59.124;37.910;2024-01-30T03:50:48;12.35;;;10.30;;
78895;SDS011;68284;59.124;37.910;2024-01-30T03:53:14;13.02;;;8.50;;
78895;SDS011;68284;59.124;37.910;2024-01-30T03:55:44;13.30;;;7.03;;
78895;SDS011;68284;59.124;37.910;2024-01-30T03:58:10;14.63;;;8.02;;
78895;SDS011;68284;59.124;37.910;2024-01-30T04:00:38;28.65;;;15.20;;
78895;SDS011;68284;59.124;37.910;2024-01-30T04:03:06;23.50;;;12.63;;
78895;SDS011;68284;59.124;37.910;2024-01-30T04:05:33;16.00;;;10.93;;
78895;SDS011;68284;59.124;37.910;2024-01-30T04:07:59;15.43;;;8.55;;
78895;SDS011;68284;59.124;37.910;2024-01-30T04:10:26;15.85;;;6.97;;
78895;SDS011;68284;59.124;37.910;2024-01-30T04:12:53;11.57;;;7.60;;
78895;SDS011;68284;59.124;37.910;2024-01-30T04:15:20;12.82;;;6.72;;
78895;SDS011;68284;59.124;37.910;2024-01-30T04:20:14;19.17;;;13.57;;
78895;SDS011;68284;59.124;37.910;2024-01-30T04:22:45;12.45;;;9.98;;
78895;SDS011;68284;59.124;37.910;2024-01-30T04:25:13;26.35;;;13.30;;
78895;SDS011;68284;59.124;37.910;2024-01-30T04:27:39;13.98;;;8.73;;
78895;SDS011;68284;59.124;37.910;2024-01-30T04:30:06;12.77;;;10.75;;
78895;SDS011;68284;59.124;37.910;2024-01-30T04:32:33;18.63;;;13.68;;
78895;SDS011;68284;59.124;37.910;2024-01-30T04:35:00;25.65;;;16.27;;
78895;SDS011;68284;59.124;37.910;2024-01-30T04:37:27;26.92;;;17.92;;
78895;SDS011;68284;59.124;37.910;2024-01-30T04:39:54;24.40;;;15.98;;
78895;SDS011;68284;59.124;37.910;2024-01-30T04:42:21;42.63;;;18.08;;
78895;SDS011;68284;59.124;37.910;2024-01-30T04:44:47;35.38;;;18.60;;
78895;SDS011;68284;59.124;37.910;2024-01-30T04:47:14;33.53;;;15.68;;
78895;SDS011;68284;59.124;37.910;2024-01-30T04:49:41;19.48;;;10.30;;
78895;SDS011;68284;59.124;37.910;2024-01-30T04:52:08;14.35;;;8.75;;
78895;SDS011;68284;59.124;37.910;2024-01-30T04:54:35;25.08;;;11.52;;
78895;SDS011;68284;59.124;37.910;2024-01-30T04:57:02;19.48;;;11.82;;
78895;SDS011;68284;59.124;37.910;2024-01-30T04:59:29;21.95;;;14.00;;
78895;SDS011;68284;59.124;37.910;2024-01-30T05:01:55;25.63;;;13.80;;
78895;SDS011;68284;59.124;37.910;2024-01-30T05:04:22;32.70;;;17.05;;
78895;SDS011;68284;59.124;37.910;2024-01-30T05:06:48;26.80;;;17.17;;
78895;SDS011;68284;59.124;37.910;2024-01-30T05:09:15;35.03;;;17.52;;
78895;SDS011;68284;59.124;37.910;2024-01-30T05:11:41;27.25;;;17.02;;
78895;SDS011;68284;59.124;37.910;2024-01-30T05:14:09;27.33;;;14.25;;
78895;SDS011;68284;59.124;37.910;2024-01-30T05:16:37;23.08;;;12.75;;
78895;SDS011;68284;59.124;37.910;2024-01-30T05:19:06;15.98;;;6.72;;
78895;SDS011;68284;59.124;37.910;2024-01-30T05:21:35;13.88;;;8.23;;
78895;SDS011;68284;59.124;37.910;2024-01-30T05:24:02;17.13;;;7.32;;
78895;SDS011;68284;59.124;37.910;2024-01-30T05:26:31;16.10;;;7.10;;
78895;SDS011;68284;59.124;37.910;2024-01-30T05:31:55;25.15;;;9.48;;
78895;SDS011;68284;59.124;37.910;2024-01-30T05:34:23;14.48;;;8.13;;
78895;SDS011;68284;59.124;37.910;2024-01-30T05:36:51;15.65;;;8.80;;
78895;SDS011;68284;59.124;37.910;2024-01-30T05:39:18;10.68;;;7.35;;
78895;SDS011;68284;59.124;37.910;2024-01-30T05:41:48;8.18;;;5.32;;
78895;SDS011;68284;59.124;37.910;2024-01-30T05:44:18;20.77;;;8.48;;
78895;SDS011;68284;59.124;37.910;2024-01-30T05:46:46;17.15;;;9.30;;
78895;SDS011;68284;59.124;37.910;2024-01-30T05:49:14;19.27;;;10.27;;
78895;SDS011;68284;59.124;37.910;2024-01-30T05:51:41;10.73;;;7.80;;
78895;SDS011;68284;59.124;37.910;2024-01-30T05:54:08;12.65;;;5.88;;
78895;SDS011;68284;59.124;37.910;2024-01-30T05:56:34;11.77;;;4.90;;
78895;SDS011;68284;59.124;37.910;2024-01-30T05:59:00;13.13;;;7.28;;
78895;SDS011;68284;59.124;37.910;2024-01-30T06:01:27;10.00;;;5.97;;
78895;SDS011;68284;59.124;37.910;2024-01-30T06:03:55;8.88;;;7.95;;
78895;SDS011;68284;59.124;37.910;2024-01-30T06:06:21;15.40;;;4.90;;
78895;SDS011;68284;59.124;37.910;2024-01-30T06:08:48;16.17;;;5.70;;
78895;SDS011;68284;59.124;37.910;2024-01-30T06:11:14;8.20;;;6.15;;
78895;SDS011;68284;59.124;37.910;2024-01-30T06:13:41;16.92;;;5.13;;
78895;SDS011;68284;59.124;37.910;2024-01-30T06:16:10;7.70;;;4.40;;
78895;SDS011;68284;59.124;37.910;2024-01-30T06:18:40;11.98;;;4.95;;
78895;SDS011;68284;59.124;37.910;2024-01-30T06:21:06;13.10;;;6.32;;
78895;SDS011;68284;59.124;37.910;2024-01-30T06:23:33;12.80;;;5.60;;
78895;SDS011;68284;59.124;37.910;2024-01-30T06:25:59;11.93;;;6.13;;
78895;SDS011;68284;59.124;37.910;2024-01-30T06:28:26;11.85;;;6.65;;
78895;SDS011;68284;59.124;37.910;2024-01-30T06:30:52;14.10;;;6.07;;
78895;SDS011;68284;59.124;37.910;2024-01-30T06:33:19;11.60;;;5.30;;
78895;SDS011;68284;59.124;37.910;2024-01-30T06:35:45;14.52;;;5.55;;
78895;SDS011;68284;59.124;37.910;2024-01-30T06:38:12;19.00;;;7.20;;
78895;SDS011;68284;59.124;37.910;2024-01-30T06:40:39;20.27;;;10.35;;
78895;SDS011;68284;59.124;37.910;2024-01-30T06:43:05;16.05;;;6.63;;
78895;SDS011;68284;59.124;37.910;2024-01-30T06:45:33;9.93;;;5.97;;
78895;SDS011;68284;59.124;37.910;2024-01-30T06:48:00;15.05;;;5.30;;
78895;SDS011;68284;59.124;37.910;2024-01-30T06:50:27;11.15;;;6.05;;
78895;SDS011;68284;59.124;37.910;2024-01-30T06:52:53;15.63;;;5.82;;
78895;SDS011;68284;59.124;37.910;2024-01-30T06:55:20;11.20;;;5.50;;
78895;SDS011;68284;59.124;37.910;2024-01-30T06:57:46;8.50;;;4.28;;
78895;SDS011;68284;59.124;37.910;2024-01-30T07:00:13;11.77;;;4.28;;
78895;SDS011;68284;59.124;37.910;2024-01-30T07:02:42;14.02;;;6.00;;
78895;SDS011;68284;59.124;37.910;2024-01-30T07:05:09;17.00;;;6.65;;
78895;SDS011;68284;59.124;37.910;2024-01-30T07:07:35;10.63;;;5.97;;
78895;SDS011;68284;59.124;37.910;2024-01-30T07:10:02;10.70;;;6.80;;
78895;SDS011;68284;59.124;37.910;2024-01-30T07:12:30;16.88;;;5.50;;
78895;SDS011;68284;59.124;37.910;2024-01-30T07:14:57;14.60;;;4.68;;
78895;SDS011;68284;59.124;37.910;2024-01-30T07:17:25;12.75;;;6.85;;
78895;SDS011;68284;59.124;37.910;2024-01-30T07:19:51;10.40;;;4.97;;
78895;SDS011;68284;59.124;37.910;2024-01-30T07:24:45;8.30;;;4.93;;
78895;SDS011;68284;59.124;37.910;2024-01-30T07:27:14;7.70;;;4.82;;
78895;SDS011;68284;59.124;37.910;2024-01-30T07:29:40;7.55;;;5.43;;
78895;SDS011;68284;59.124;37.910;2024-01-30T07:32:07;6.57;;;3.90;;
78895;SDS011;68284;59.124;37.910;2024-01-30T07:34:33;6.07;;;4.40;;
78895;SDS011;68284;59.124;37.910;2024-01-30T07:37:00;9.75;;;5.65;;
78895;SDS011;68284;59.124;37.910;2024-01-30T07:39:26;7.35;;;4.43;;
78895;SDS011;68284;59.124;37.910;2024-01-30T07:41:53;8.30;;;5.53;;
78895;SDS011;68284;59.124;37.910;2024-01-30T07:44:21;14.80;;;8.05;;
78895;SDS011;68284;59.124;37.910;2024-01-30T07:46:50;11.77;;;5.78;;
78895;SDS011;68284;59.124;37.910;2024-01-30T07:49:19;8.77;;;6.05;;
78895;SDS011;68284;59.124;37.910;2024-01-30T07:51:46;9.90;;;5.82;;
78895;SDS011;68284;59.124;37.910;2024-01-30T07:54:13;7.72;;;5.70;;
78895;SDS011;68284;59.124;37.910;2024-01-30T07:56:39;10.48;;;6.35;;
78895;SDS011;68284;59.124;37.910;2024-01-30T07:59:09;10.15;;;6.10;;
78895;SDS011;68284;59.124;37.910;2024-01-30T08:01:36;10.88;;;5.20;;
78895;SDS011;68284;59.124;37.910;2024-01-30T08:04:03;9.10;;;5.40;;
78895;SDS011;68284;59.124;37.910;2024-01-30T08:06:30;11.50;;;6.85;;
78895;SDS011;68284;59.124;37.910;2024-01-30T08:08:58;13.70;;;6.43;;
78895;SDS011;68284;59.124;37.910;2024-01-30T08:11:25;9.40;;;6.93;;
78895;SDS011;68284;59.124;37.910;2024-01-30T08:13:53;13.02;;;5.80;;
78895;SDS011;68284;59.124;37.910;2024-01-30T08:16:19;12.63;;;6.13;;
78895;SDS011;68284;59.124;37.910;2024-01-30T08:18:46;8.80;;;5.97;;
78895;SDS011;68284;59.124;37.910;2024-01-30T08:21:12;13.60;;;6.53;;
78895;SDS011;68284;59.124;37.910;2024-01-30T08:23:39;14.18;;;5.88;;
78895;SDS011;68284;59.124;37.910;2024-01-30T08:26:10;8.57;;;5.25;;
78895;SDS011;68284;59.124;37.910;2024-01-30T08:28:42;11.52;;;7.93;;
78895;SDS011;68284;59.124;37.910;2024-01-30T08:31:13;9.07;;;5.97;;
78895;SDS011;68284;59.124;37.910;2024-01-30T08:33:45;11.05;;;7.15;;
78895;SDS011;68284;59.124;37.910;2024-01-30T08:36:16;10.50;;;6.53;;
78895;SDS011;68284;59.124;37.910;2024-01-30T08:38:48;13.52;;;8.02;;
78895;SDS011;68284;59.124;37.910;2024-01-30T08:41:19;9.52;;;6.90;;
78895;SDS011;68284;59.124;37.910;2024-01-30T08:43:51;9.75;;;7.28;;
78895;SDS011;68284;59.124;37.910;2024-01-30T08:46:23;10.68;;;6.07;;
78895;SDS011;68284;59.124;37.910;2024-01-30T08:48:54;11.73;;;6.75;;
78895;SDS011;68284;59.124;37.910;2024-01-30T08:51:21;9.43;;;6.35;;
78895;SDS011;68284;59.124;37.910;2024-01-30T08:53:48;8.30;;;6.80;;
78895;SDS011;68284;59.124;37.910;2024-01-30T08:56:14;8.48;;;5.53;;
78895;SDS011;68284;59.124;37.910;2024-01-30T08:58:42;9.65;;;7.13;;
78895;SDS011;68284;59.124;37.910;2024-01-30T09:01:08;14.70;;;7.45;;
78895;SDS011;68284;59.124;37.910;2024-01-30T09:06:03;11.27;;;10.02;;
78895;SDS011;68284;59.124;37.910;2024-01-30T09:08:30;16.92;;;10.60;;
78895;SDS011;68284;59.124;37.910;2024-01-30T09:10:56;13.98;;;8.82;;
78895;SDS011;68284;59.124;37.910;2024-01-30T09:13:23;13.43;;;8.43;;
78895;SDS011;68284;59.124;37.910;2024-01-30T09:15:49;8.60;;;5.10;;
78895;SDS011;68284;59.124;37.910;2024-01-30T09:18:16;9.60;;;5.72;;
78895;SDS011;68284;59.124;37.910;2024-01-30T09:20:42;9.77;;;5.97;;
78895;SDS011;68284;59.124;37.910;2024-01-30T09:23:11;5.97;;;4.07;;
78895;SDS011;68284;59.124;37.910;2024-01-30T09:25:37;11.20;;;6.47;;
78895;SDS011;68284;59.124;37.910;2024-01-30T09:28:04;11.65;;;5.53;;
78895;SDS011;68284;59.124;37.910;2024-01-30T09:30:33;8.13;;;4.65;;
78895;SDS011;68284;59.124;37.910;2024-01-30T09:33:00;7.57;;;4.38;;
78895;SDS011;68284;59.124;37.910;2024-01-30T09:35:28;9.50;;;8.38;;
78895;SDS011;68284;59.124;37.910;2024-01-30T09:37:55;10.35;;;6.05;;
78895;SDS011;68284;59.124;37.910;2024-01-30T09:40:23;12.93;;;9.10;;
78895;SDS011;68284;59.124;37.910;2024-01-30T09:42:51;10.07;;;6.68;;
78895;SDS011;68284;59.124;37.910;2024-01-30T09:45:17;7.97;;;5.53;;
78895;SDS011;68284;59.124;37.910;2024-01-30T09:47:47;19.85;;;8.68;;
78895;SDS011;68284;59.124;37.910;2024-01-30T09:50:14;14.20;;;9.60;;
78895;SDS011;68284;59.124;37.910;2024-01-30T09:52:42;15.43;;;7.80;;
78895;SDS011;68284;59.124;37.910;2024-01-30T09:55:13;13.27;;;6.82;;
78895;SDS011;68284;59.124;37.910;2024-01-30T09:57:41;13.35;;;8.00;;
78895;SDS011;68284;59.124;37.910;2024-01-30T10:00:08;21.13;;;9.50;;
78895;SDS011;68284;59.124;37.910;2024-01-30T10:02:41;13.02;;;6.68;;
78895;SDS011;68284;59.124;37.910;2024-01-30T10:05:08;13.52;;;6.00;;
78895;SDS011;68284;59.124;37.910;2024-01-30T10:07:35;11.70;;;5.90;;
78895;SDS011;68284;59.124;37.910;2024-01-30T10:10:01;16.75;;;9.00;;
78895;SDS011;68284;59.124;37.910;2024-01-30T10:12:29;13.55;;;7.68;;
78895;SDS011;68284;59.124;37.910;2024-01-30T10:14:56;16.85;;;7.85;;
78895;SDS011;68284;59.124;37.910;2024-01-30T10:17:24;16.88;;;5.95;;
78895;SDS011;68284;59.124;37.910;2024-01-30T10:19:52;9.63;;;4.40;;
78895;SDS011;68284;59.124;37.910;2024-01-30T10:22:20;13.75;;;6.47;;
78895;SDS011;68284;59.124;37.910;2024-01-30T10:24:47;7.95;;;4.82;;
78895;SDS011;68284;59.124;37.910;2024-01-30T10:27:14;9.63;;;5.90;;
78895;SDS011;68284;59.124;37.910;2024-01-30T10:29:40;7.40;;;5.15;;
78895;SDS011;68284;59.124;37.910;2024-01-30T10:32:07;9.75;;;5.80;;
78895;SDS011;68284;59.124;37.910;2024-01-30T10:34:33;7.93;;;5.90;;
78895;SDS011;68284;59.124;37.910;2024-01-30T10:37:09;9.32;;;5.10;;
78895;SDS011;68284;59.124;37.910;2024-01-30T10:39:43;11.30;;;5.75;;
78895;SDS011;68284;59.124;37.910;2024-01-30T10:42:14;10.23;;;5.55;;
78895;SDS011;68284;59.124;37.910;2024-01-30T10:47:29;6.05;;;4.15;;
78895;SDS011;68284;59.124;37.910;2024-01-30T10:49:56;5.82;;;4.47;;
78895;SDS011;68284;59.124;37.910;2024-01-30T10:52:24;6.03;;;3.78;;
78895;SDS011;68284;59.124;37.910;2024-01-30T10:54:54;12.02;;;5.35;;
78895;SDS011;68284;59.124;37.910;2024-01-30T10:57:24;6.72;;;4.35;;
78895;SDS011;68284;59.124;37.910;2024-01-30T10:59:59;7.82;;;4.30;;
78895;SDS011;68284;59.124;37.910;2024-01-30T11:02:31;6.70;;;5.78;;
78895;SDS011;68284;59.124;37.910;2024-01-30T11:05:00;6.53;;;5.85;;
78895;SDS011;68284;59.124;37.910;2024-01-30T11:07:28;8.98;;;5.82;;
78895;SDS011;68284;59.124;37.910;2024-01-30T11:12:33;7.45;;;4.70;;
78895;SDS011;68284;59.124;37.910;2024-01-30T11:17:50;8.30;;;5.32;;
78895;SDS011;68284;59.124;37.910;2024-01-30T11:22:57;11.82;;;3.72;;
78895;SDS011;68284;59.124;37.910;2024-01-30T11:25:25;16.00;;;4.80;;
78895;SDS011;68284;59.124;37.910;2024-01-30T11:27:52;4.78;;;2.58;;
78895;SDS011;68284;59.124;37.910;2024-01-30T11:30:27;7.45;;;3.47;;
78895;SDS011;68284;59.124;37.910;2024-01-30T11:33:05;5.97;;;4.43;;
78895;SDS011;68284;59.124;37.910;2024-01-30T11:35:35;8.43;;;4.85;;
78895;SDS011;68284;59.124;37.910;2024-01-30T11:38:02;12.52;;;4.53;;
78895;SDS011;68284;59.124;37.910;2024-01-30T11:40:30;8.10;;;4.05;;
78895;SDS011;68284;59.124;37.910;2024-01-30T11:42:58;9.48;;;4.97;;
78895;SDS011;68284;59.124;37.910;2024-01-30T11:45:26;9.00;;;4.75;;
78895;SDS011;68284;59.124;37.910;2024-01-30T11:47:53;12.43;;;5.00;;
78895;SDS011;68284;59.124;37.910;2024-01-30T11:50:21;8.68;;;3.95;;
78895;SDS011;68284;59.124;37.910;2024-01-30T11:52:48;8.65;;;4.40;;
78895;SDS011;68284;59.124;37.910;2024-01-30T11:55:15;9.45;;;7.20;;
78895;SDS011;68284;59.124;37.910;2024-01-30T11:57:41;7.20;;;3.53;;
78895;SDS011;68284;59.124;37.910;2024-01-30T12:00:17;8.43;;;4.00;;
78895;SDS011;68284;59.124;37.910;2024-01-30T12:02:48;6.43;;;3.80;;
78895;SDS011;68284;59.124;37.910;2024-01-30T12:05:16;6.47;;;3.05;;
78895;SDS011;68284;59.124;37.910;2024-01-30T12:07:44;9.18;;;4.28;;
78895;SDS011;68284;59.124;37.910;2024-01-30T12:10:15;8.32;;;4.50;;
78895;SDS011;68284;59.124;37.910;2024-01-30T12:12:42;8.25;;;3.92;;
78895;SDS011;68284;59.124;37.910;2024-01-30T12:15:11;8.27;;;3.33;;
78895;SDS011;68284;59.124;37.910;2024-01-30T12:17:39;7.80;;;5.50;;
78895;SDS011;68284;59.124;37.910;2024-01-30T12:22:40;11.00;;;3.28;;
78895;SDS011;68284;59.124;37.910;2024-01-30T12:25:12;9.52;;;4.45;;
78895;SDS011;68284;59.124;37.910;2024-01-30T12:27:43;4.63;;;3.80;;
78895;SDS011;68284;59.124;37.910;2024-01-30T12:30:13;10.70;;;4.97;;
78895;SDS011;68284;59.124;37.910;2024-01-30T12:32:43;5.43;;;4.30;;
78895;SDS011;68284;59.124;37.910;2024-01-30T12:35:10;7.28;;;4.30;;
78895;SDS011;68284;59.124;37.910;2024-01-30T12:37:38;7.05;;;4.10;;
78895;SDS011;68284;59.124;37.910;2024-01-30T12:40:05;8.10;;;4.43;;
78895;SDS011;68284;59.124;37.910;2024-01-30T12:42:33;6.28;;;5.45;;
78895;SDS011;68284;59.124;37.910;2024-01-30T12:45:00;4.88;;;2.58;;
78895;SDS011;68284;59.124;37.910;2024-01-30T12:47:26;7.97;;;3.90;;
78895;SDS011;68284;59.124;37.910;2024-01-30T12:49:52;6.07;;;3.17;;
78895;SDS011;68284;59.124;37.910;2024-01-30T12:52:20;4.85;;;2.33;;
78895;SDS011;68284;59.124;37.910;2024-01-30T12:54:47;5.25;;;3.47;;
78895;SDS011;68284;59.124;37.910;2024-01-30T12:57:14;5.88;;;4.13;;
78895;SDS011;68284;59.124;37.910;2024-01-30T12:59:40;7.97;;;3.42;;
78895;SDS011;68284;59.124;37.910;2024-01-30T13:04:34;6.35;;;4.43;;
78895;SDS011;68284;59.124;37.910;2024-01-30T13:09:27;8.13;;;5.03;;
78895;SDS011;68284;59.124;37.910;2024-01-30T13:11:53;8.23;;;4.57;;
78895;SDS011;68284;59.124;37.910;2024-01-30T13:14:19;11.60;;;6.47;;
78895;SDS011;68284;59.124;37.910;2024-01-30T13:16:46;13.40;;;4.90;;
78895;SDS011;68284;59.124;37.910;2024-01-30T13:19:12;12.70;;;6.47;;
78895;SDS011;68284;59.124;37.910;2024-01-30T13:21:40;15.48;;;8.57;;
78895;SDS011;68284;59.124;37.910;2024-01-30T13:24:06;15.48;;;6.53;;
78895;SDS011;68284;59.124;37.910;2024-01-30T13:26:32;13.30;;;7.90;;
78895;SDS011;68284;59.124;37.910;2024-01-30T13:28:59;13.48;;;8.52;;
78895;SDS011;68284;59.124;37.910;2024-01-30T13:31:25;15.20;;;8.88;;
78895;SDS011;68284;59.124;37.910;2024-01-30T13:33:54;11.40;;;7.95;;
78895;SDS011;68284;59.124;37.910;2024-01-30T13:36:20;15.98;;;11.10;;
78895;SDS011;68284;59.124;37.910;2024-01-30T13:38:47;19.92;;;10.57;;
78895;SDS011;68284;59.124;37.910;2024-01-30T13:41:14;14.38;;;9.77;;
78895;SDS011;68284;59.124;37.910;2024-01-30T13:43:40;18.65;;;11.60;;
78895;SDS011;68284;59.124;37.910;2024-01-30T13:46:07;16.50;;;11.85;;
78895;SDS011;68284;59.124;37.910;2024-01-30T13:48:33;19.60;;;16.95;;
78895;SDS011;68284;59.124;37.910;2024-01-30T13:51:01;20.60;;;16.95;;
78895;SDS011;68284;59.124;37.910;2024-01-30T13:53:27;20.08;;;16.00;;
78895;SDS011;68284;59.124;37.910;2024-01-30T13:55:54;27.20;;;20.77;;
78895;SDS011;68284;59.124;37.910;2024-01-30T13:58:21;25.80;;;22.20;;
78895;SDS011;68284;59.124;37.910;2024-01-30T14:00:47;26.02;;;23.55;;
78895;SDS011;68284;59.124;37.910;2024-01-30T14:03:15;38.47;;;27.95;;
78895;SDS011;68284;59.124;37.910;2024-01-30T14:05:41;32.03;;;28.65;;
78895;SDS011;68284;59.124;37.910;2024-01-30T14:08:07;36.50;;;32.20;;
78895;SDS011;68284;59.124;37.910;2024-01-30T14:13:00;62.38;;;50.20;;
78895;SDS011;68284;59.124;37.910;2024-01-30T14:15:27;50.78;;;42.85;;
78895;SDS011;68284;59.124;37.910;2024-01-30T14:17:53;43.45;;;39.03;;
78895;SDS011;68284;59.124;37.910;2024-01-30T14:20:20;46.50;;;37.80;;
78895;SDS011;68284;59.124;37.910;2024-01-30T14:22:46;44.78;;;39.95;;
78895;SDS011;68284;59.124;37.910;2024-01-30T14:25:13;38.40;;;34.40;;
78895;SDS011;68284;59.124;37.910;2024-01-30T14:27:39;54.70;;;36.10;;
78895;SDS011;68284;59.124;37.910;2024-01-30T14:30:06;47.72;;;40.38;;
78895;SDS011;68284;59.124;37.910;2024-01-30T14:32:35;35.35;;;31.08;;
78895;SDS011;68284;59.124;37.910;2024-01-30T14:35:02;38.28;;;31.63;;
78895;SDS011;68284;59.124;37.910;2024-01-30T14:37:28;35.95;;;32.55;;
78895;SDS011;68284;59.124;37.910;2024-01-30T14:39:55;37.80;;;33.17;;
78895;SDS011;68284;59.124;37.910;2024-01-30T14:42:22;37.40;;;31.30;;
78895;SDS011;68284;59.124;37.910;2024-01-30T14:44:48;32.25;;;28.98;;
78895;SDS011;68284;59.124;37.910;2024-01-30T14:47:15;37.15;;;32.35;;
78895;SDS011;68284;59.124;37.910;2024-01-30T14:49:42;33.95;;;27.38;;
78895;SDS011;68284;59.124;37.910;2024-01-30T14:52:08;35.08;;;31.55;;
78895;SDS011;68284;59.124;37.910;2024-01-30T14:54:36;38.67;;;32.05;;
78895;SDS011;68284;59.124;37.910;2024-01-30T14:57:02;33.97;;;30.02;;
78895;SDS011;68284;59.124;37.910;2024-01-30T14:59:30;36.35;;;32.35;;
78895;SDS011;68284;59.124;37.910;2024-01-30T15:01:58;40.83;;;32.65;;
78895;SDS011;68284;59.124;37.910;2024-01-30T15:04:25;35.28;;;30.05;;
78895;SDS011;68284;59.124;37.910;2024-01-30T15:06:52;39.00;;;32.22;;